Flight Track Log - Related Links

Times and Time Zones

All times are in EDT time to prevent confusion due to time zone crossing. See the SWA568 flight status page for this flight to view local times or setup timezone preferences in your user account.

Time Position Orientation Groundspeed Altitude Reporting Facility
EDT Latitude Longitude Course Direction KTS MPH feet Rate Location/Type
Tue 12:01:54 AM 36.0747 -115.2111 269° West 177 204 4,200  Level Los Angeles Center
Tue 12:02:55 AM 36.0419 -115.2697 235° Southwest 250 288 6,600 2,024 Climbing Los Angeles Center
Tue 12:03:17 AM 36.0153 -115.2808 199° South 258 297 7,000 393 Climbing Los Angeles Center
Tue 12:03:56 AM 35.9689 -115.3017 200° South 272 313 7,000 290 Level Los Angeles Center
Tue 12:04:19 AM 35.9428 -115.3072 190° South 267 307 7,300 2,262 Climbing Los Angeles Center
Tue 12:04:57 AM 35.8911 -115.3114 184° South 281 323 9,300 2,516 Climbing Los Angeles Center
Tue 12:05:21 AM 35.8803 -115.3125 185° South 273 314 9,900 2,612 Climbing Los Angeles Center
Tue 12:06:22 AM 35.7697 -115.3039 176° South 313 360 13,000 3,073 Climbing Los Angeles Center
Tue 12:07:24 AM 35.6697 -115.3114 183° South 365 420 16,200 3,171 Climbing Los Angeles Center
Tue 12:08:25 AM 35.5969 -115.4042 226° Southwest 375 432 19,500 2,952 Climbing Los Angeles Center
Tue 12:09:28 AM 35.5236 -115.5036 228° Southwest 387 445 22,300 2,878 Climbing Los Angeles Center
Tue 12:10:28 AM 35.4389 -115.6178 228° Southwest 407 468 25,400 2,758 Climbing Los Angeles Center
Tue 12:11:32 AM 35.3614 -115.7197 227° Southwest 408 470 28,000 1,268 Climbing Los Angeles Center
Tue 12:12:31 AM 35.2850 -115.8208 227° Southwest 405 466 28,000  Level Los Angeles Center
Tue 12:13:33 AM 35.2081 -115.9233 227° Southwest 407 468 28,000 -439 Level Los Angeles Center
Tue 12:14:34 AM 35.1325 -116.0244 228° Southwest 404 465 27,100 -927 Descending Los Angeles Center
Tue 12:15:36 AM 35.0553 -116.1239 227° Southwest 404 465 26,100 -976 Descending Los Angeles Center
Tue 12:16:37 AM 34.9806 -116.2233 227° Southwest 399 459 25,100 -976 Descending Los Angeles Center
Tue 12:17:39 AM 34.9075 -116.3189 227° Southwest 386 444 24,100 -976 Descending Los Angeles Center
Tue 12:18:40 AM 34.8344 -116.4114 226° Southwest 380 437 23,100 -1,082 Descending Los Angeles Center
Tue 12:19:41 AM 34.7486 -116.5222 227° Southwest 374 430 21,900 -1,073 Descending Los Angeles Center
Tue 12:20:43 AM 34.6764 -116.6108 225° Southwest 369 425 20,900 -976 Descending Los Angeles Center
Tue 12:21:44 AM 34.6050 -116.6969 225° Southwest 364 419 19,900 -1,230 Descending Los Angeles Center
Tue 12:22:45 AM 34.5364 -116.7806 225° Southwest 351 404 18,400 -1,659 Descending Los Angeles Center
Tue 12:23:47 AM 34.4694 -116.8617 225° Southwest 341 392 16,500 -1,707 Descending Los Angeles Center
Tue 12:24:48 AM 34.4075 -116.9400 226° Southwest 326 375 14,900 -1,475 Descending Los Angeles Center
Tue 12:25:49 AM 34.3456 -117.0136 224° Southwest 316 364 13,500 -1,317 Descending Los Angeles Center
Tue 12:26:51 AM 34.2858 -117.0861 225° Southwest 306 352 12,200 -732 Descending Los Angeles Center
Tue 12:27:52 AM 34.2300 -117.1531 225° Southwest 287 330 12,000 -639 Descending Los Angeles Center
Tue 12:28:53 AM 34.1483 -117.1761 193° South 286 329 10,900 -1,389 Descending Los Angeles Center
Tue 12:29:40 AM 34.0833 -117.2000 197° South 285 328 9,500 -897 Descending Southern California TRACON
Tue 12:30:40 AM 34.0500 -117.2667 239° Southwest 227 261 9,300 -150 Descending Southern California TRACON
Tue 12:31:40 AM 34.0500 -117.3333 270° West 175 201 9,200 -900 Descending Southern California TRACON
Tue 12:32:40 AM 34.0833 -117.3667 320° Northwest 168 193 7,500 -1,650 Descending Southern California TRACON
Tue 12:33:40 AM 34.0500 -117.4000 220° Southwest 155 178 5,900 -1,800 Descending Southern California TRACON
Tue 12:34:40 AM 34.0500 -117.4333 270° West 158 182 3,900 -1,636 Descending Southern California TRACON
Tue 12:35:52 AM 34.0500 -117.5000 270° West 135 155 2,300 -1,039 Descending Southern California TRACON
Tue 12:36:47 AM 34.0500 -117.5333 270° West 130 150 1,700 -678 Descending Southern California TRACON
Tue 12:37:47 AM 34.0500 -117.5833 270° West 129 148 1,000 -700 Descending Southern California TRACON
Tue 12:40:00 AM 34.0500 -117.6000 270° West  Level FlightAware Approximate
Tue 12:47:00 AM 34.0560 -117.6012 270° West  Level Estimated

Login

Don't have an account? Register now (free) for customized features, flight alerts, and more!